createdAt,value
2022-10-02T00:02:25.105Z,83.27
2022-10-02T00:05:01.262Z,83.43
2022-10-02T00:07:51.637Z,83.47
2022-10-02T00:10:30.228Z,83.50
2022-10-02T00:13:05.531Z,83.64
2022-10-02T00:15:38.654Z,83.73
2022-10-02T00:18:15.843Z,83.70
2022-10-02T00:21:04.678Z,83.76
2022-10-02T00:23:40.535Z,83.85
2022-10-02T00:26:17.754Z,83.89
2022-10-02T00:28:59.456Z,84.10
2022-10-02T00:31:34.944Z,84.15
2022-10-02T00:34:23.116Z,84.29
2022-10-02T00:37:04.644Z,84.43
2022-10-02T00:39:48.991Z,84.44
2022-10-02T00:42:46.907Z,84.41
2022-10-02T00:45:41.713Z,84.63
2022-10-02T00:48:33.142Z,84.65
2022-10-02T00:51:15.618Z,84.67
2022-10-02T00:53:57.672Z,84.75
2022-10-02T00:56:38.557Z,84.78
2022-10-02T00:59:21.271Z,84.91
2022-10-02T01:01:58.396Z,84.78
2022-10-02T01:04:34.280Z,84.72
2022-10-02T01:07:08.366Z,84.82
2022-10-02T01:09:40.597Z,84.91
2022-10-02T01:12:12.679Z,84.76
2022-10-02T01:14:44.254Z,84.73
2022-10-02T01:17:25.255Z,84.88
2022-10-02T01:19:57.678Z,84.85
2022-10-02T01:22:35.728Z,84.90
2022-10-02T01:25:09.254Z,84.87
2022-10-02T01:27:40.839Z,84.79
2022-10-02T01:30:12.538Z,84.77
2022-10-02T01:32:49.185Z,84.93
2022-10-02T01:35:23.429Z,84.96
2022-10-02T01:37:57.150Z,85.16
2022-10-02T01:40:31.011Z,85.22
2022-10-02T01:43:05.820Z,85.13
2022-10-02T01:45:53.577Z,85.14
2022-10-02T01:48:43.073Z,85.06
2022-10-02T01:51:33.425Z,85.22
2022-10-02T01:54:17.064Z,85.18
2022-10-02T01:56:55.467Z,85.19
2022-10-02T01:59:41.136Z,85.14
2022-10-02T02:02:19.705Z,85.25
2022-10-02T02:05:00.789Z,85.18
2022-10-02T02:07:41.622Z,85.36
2022-10-02T02:10:25.403Z,85.30
2022-10-02T02:13:01.647Z,85.45
2022-10-02T02:15:41.166Z,85.34
2022-10-02T02:18:21.118Z,85.30
2022-10-02T02:20:56.999Z,85.20
2022-10-02T02:23:32.635Z,85.17
2022-10-02T02:26:07.486Z,85.32
2022-10-02T02:28:41.966Z,85.18
2022-10-02T02:31:17.517Z,85.17
2022-10-02T02:33:54.729Z,85.22
2022-10-02T02:36:32.377Z,85.30
2022-10-02T02:39:08.503Z,85.06
2022-10-02T02:41:46.554Z,85.16
2022-10-02T02:44:24.147Z,85.24
2022-10-02T02:47:06.939Z,85.24
2022-10-02T02:49:45.885Z,85.20
2022-10-02T02:52:22.889Z,85.19
2022-10-02T02:54:59.239Z,85.11
2022-10-02T02:57:36.227Z,85.24
2022-10-02T03:00:11.670Z,84.96
2022-10-02T03:02:43.124Z,85.01
2022-10-02T03:05:18.242Z,84.98
2022-10-02T03:07:54.274Z,85.02
2022-10-02T03:10:40.566Z,85.03
2022-10-02T03:13:28.294Z,84.93
2022-10-02T03:16:13.091Z,85.00
2022-10-02T03:18:57.716Z,85.04
2022-10-02T03:21:35.679Z,85.30
2022-10-02T03:24:16.313Z,85.09
2022-10-02T03:26:53.444Z,85.25
2022-10-02T03:29:29.844Z,85.17
2022-10-02T03:32:02.709Z,85.17
2022-10-02T03:34:36.995Z,85.23
2022-10-02T03:37:09.208Z,85.31
2022-10-02T03:39:45.629Z,85.14
2022-10-02T03:42:20.814Z,85.15
2022-10-02T03:44:52.311Z,85.15
2022-10-02T03:47:23.974Z,85.05
2022-10-02T03:49:55.423Z,85.05
2022-10-02T03:52:25.787Z,85.04
2022-10-02T03:55:03.291Z,85.22
2022-10-02T03:57:36.228Z,85.11
2022-10-02T04:00:13.073Z,84.99
2022-10-02T04:02:49.407Z,85.29
2022-10-02T04:05:26.264Z,85.23
2022-10-02T04:08:03.858Z,85.12
2022-10-02T04:10:44.873Z,85.01
2022-10-02T04:13:23.038Z,85.04
2022-10-02T04:16:02.795Z,85.05
2022-10-02T04:18:40.926Z,85.03
2022-10-02T04:21:21.371Z,85.07
2022-10-02T04:23:57.825Z,84.96
2022-10-02T04:26:34.937Z,84.96
2022-10-02T04:29:16.061Z,84.97
2022-10-02T04:31:52.139Z,85.01
2022-10-02T04:34:23.855Z,84.88
2022-10-02T04:37:02.132Z,84.96
2022-10-02T04:39:51.271Z,85.04
2022-10-02T04:42:36.646Z,84.89
2022-10-02T04:45:30.113Z,84.95
2022-10-02T04:48:26.289Z,84.92
2022-10-02T04:51:06.099Z,84.96
2022-10-02T04:54:09.554Z,85.00
2022-10-02T04:57:13.048Z,84.87
2022-10-02T04:59:58.878Z,84.76
2022-10-02T05:02:41.776Z,85.02
2022-10-02T05:05:25.917Z,84.74
2022-10-02T05:08:18.201Z,84.81
2022-10-02T05:11:05.744Z,84.77
2022-10-02T05:13:54.723Z,84.91
2022-10-02T05:16:48.930Z,84.92
2022-10-02T05:19:46.241Z,84.81
2022-10-02T05:22:47.438Z,84.77
2022-10-02T05:25:33.671Z,84.96
2022-10-02T05:28:30.963Z,84.80
2022-10-02T05:31:14.111Z,84.80
2022-10-02T05:34:02.342Z,84.59
2022-10-02T05:36:52.840Z,84.63
2022-10-02T05:39:31.259Z,84.68
2022-10-02T05:42:13.527Z,84.55
2022-10-02T05:44:51.664Z,84.58
2022-10-02T05:47:30.407Z,84.55
2022-10-02T05:50:10.926Z,84.42
2022-10-02T05:52:48.605Z,84.33
2022-10-02T05:55:24.861Z,84.32
2022-10-02T05:58:01.851Z,84.29
2022-10-02T06:00:39.205Z,84.09
2022-10-02T06:03:18.962Z,84.17
2022-10-02T06:05:56.309Z,84.02
2022-10-02T06:08:35.842Z,83.92
2022-10-02T06:11:11.516Z,83.65
2022-10-02T06:13:48.496Z,83.65
2022-10-02T06:16:23.623Z,83.57
2022-10-02T06:18:59.554Z,83.32
2022-10-02T06:21:36.752Z,83.45
2022-10-02T06:24:17.557Z,83.40
2022-10-02T06:26:54.825Z,83.30
2022-10-02T06:29:33.593Z,83.35
2022-10-02T06:32:16.300Z,83.32
2022-10-02T06:34:48.609Z,83.12
2022-10-02T06:37:44.226Z,82.93
2022-10-02T06:40:44.380Z,82.77
2022-10-02T06:43:28.209Z,82.87
2022-10-02T06:46:12.057Z,82.67
2022-10-02T06:48:53.038Z,82.24
2022-10-02T06:51:32.517Z,82.15
2022-10-02T06:54:19.355Z,82.00
2022-10-02T06:57:12.424Z,82.01
2022-10-02T06:59:56.594Z,82.03
2022-10-02T07:02:41.516Z,81.98
2022-10-02T07:05:37.804Z,82.48
2022-10-02T07:08:15.668Z,82.45
2022-10-02T07:10:57.507Z,82.12
2022-10-02T07:13:35.535Z,82.35
2022-10-02T07:16:18.766Z,82.08
2022-10-02T07:19:09.213Z,81.88
2022-10-02T07:21:49.414Z,81.70
2022-10-02T07:24:41.027Z,81.45
2022-10-02T07:27:20.825Z,81.53
2022-10-02T07:30:00.791Z,81.32
2022-10-02T07:32:43.267Z,81.04
2022-10-02T07:35:29.555Z,80.96
2022-10-02T07:38:15.199Z,80.86
2022-10-02T07:40:59.796Z,81.00
2022-10-02T07:43:47.500Z,81.01
2022-10-02T07:46:28.738Z,80.72
2022-10-02T07:49:13.795Z,80.96
2022-10-02T07:51:55.463Z,81.05
2022-10-02T07:54:41.255Z,80.87
2022-10-02T07:57:25.945Z,80.66
2022-10-02T08:00:03.642Z,80.35
2022-10-02T08:02:50.702Z,79.54
2022-10-02T08:05:26.642Z,78.38
2022-10-02T08:08:03.221Z,78.29
2022-10-02T08:10:38.773Z,78.35
2022-10-02T08:13:20.489Z,77.77
2022-10-02T08:15:56.371Z,77.50
2022-10-02T08:18:35.357Z,76.68
2022-10-02T08:21:13.932Z,75.27
2022-10-02T08:23:50.918Z,75.67
2022-10-02T08:26:34.497Z,75.65
2022-10-02T08:29:12.791Z,76.12
2022-10-02T08:31:44.322Z,76.20
2022-10-02T08:34:19.629Z,75.88
2022-10-02T08:37:05.294Z,75.85
2022-10-02T08:39:56.628Z,76.16
2022-10-02T08:43:04.161Z,75.20
2022-10-02T08:46:17.482Z,74.79
2022-10-02T08:49:19.747Z,74.56
2022-10-02T08:52:27.392Z,74.74
2022-10-02T08:55:38.718Z,74.90
2022-10-02T08:58:39.845Z,75.20
2022-10-02T09:01:35.152Z,75.11
2022-10-02T09:04:40.482Z,74.69
2022-10-02T09:07:44.710Z,74.50
2022-10-02T09:10:45.937Z,74.48
2022-10-02T09:13:56.983Z,74.27
2022-10-02T09:16:40.751Z,73.97
2022-10-02T09:19:31.745Z,73.83
2022-10-02T09:22:15.633Z,73.65
2022-10-02T09:25:03.684Z,73.48
2022-10-02T09:27:59.674Z,74.10
2022-10-02T09:30:54.350Z,74.64
2022-10-02T09:33:56.711Z,73.52
2022-10-02T09:36:51.857Z,73.31
2022-10-02T09:39:53.400Z,72.90
2022-10-02T09:43:06.419Z,72.36
2022-10-02T09:46:22.296Z,72.19
2022-10-02T09:49:36.535Z,71.66
2022-10-02T09:52:42.025Z,71.28
2022-10-02T09:55:49.952Z,71.55
2022-10-02T09:58:50.703Z,71.63
2022-10-02T10:02:02.056Z,72.01
2022-10-02T10:05:13.804Z,72.12
2022-10-02T10:08:10.175Z,71.61
2022-10-02T10:11:00.535Z,71.31
2022-10-02T10:14:08.104Z,71.82
2022-10-02T10:17:08.980Z,71.63
2022-10-02T10:20:05.864Z,72.03
2022-10-02T10:23:03.540Z,71.82
2022-10-02T10:26:16.607Z,71.50
2022-10-02T10:29:22.567Z,70.96
2022-10-02T10:32:22.514Z,70.25
2022-10-02T10:35:26.992Z,70.39
2022-10-02T10:38:29.284Z,69.12
2022-10-02T10:41:43.782Z,69.00
2022-10-02T10:44:54.290Z,68.17
2022-10-02T10:47:46.822Z,67.50
2022-10-02T10:50:42.273Z,67.07
2022-10-02T10:53:40.557Z,67.40
2022-10-02T10:56:29.721Z,67.41
2022-10-02T10:59:25.419Z,66.27
2022-10-02T11:02:14.005Z,66.59
2022-10-02T11:05:15.506Z,66.02
2022-10-02T11:08:07.470Z,66.05
2022-10-02T11:10:51.766Z,66.19
2022-10-02T11:13:44.320Z,65.96
2022-10-02T11:16:29.153Z,66.28
2022-10-02T11:19:21.489Z,66.60
2022-10-02T11:22:26.503Z,66.59
2022-10-02T11:25:22.394Z,66.30
2022-10-02T11:28:22.301Z,66.12
2022-10-02T11:31:09.278Z,64.68
2022-10-02T11:34:03.641Z,64.17
2022-10-02T11:36:48.529Z,63.89
2022-10-02T11:39:37.472Z,64.19
2022-10-02T11:42:22.846Z,64.30
2022-10-02T11:45:19.892Z,63.93
2022-10-02T11:48:09.036Z,63.54
2022-10-02T11:50:56.618Z,63.78
2022-10-02T11:53:46.134Z,63.51
2022-10-02T11:56:32.692Z,63.01
2022-10-02T11:59:28.401Z,62.51
2022-10-02T12:02:07.885Z,62.85
2022-10-02T12:04:52.330Z,62.94
2022-10-02T12:07:36.223Z,63.54
2022-10-02T12:10:25.524Z,63.44
2022-10-02T12:13:16.237Z,63.34
2022-10-02T12:15:56.191Z,62.66
2022-10-02T12:18:39.182Z,63.39
2022-10-02T12:21:40.835Z,63.09
2022-10-02T12:24:34.197Z,62.91
2022-10-02T12:27:13.641Z,63.12
2022-10-02T12:30:06.092Z,62.76
2022-10-02T12:32:54.507Z,63.12
2022-10-02T12:35:38.027Z,63.34
2022-10-02T12:38:29.874Z,63.86
2022-10-02T12:41:11.367Z,63.86
2022-10-02T12:43:55.485Z,64.20
2022-10-02T12:46:41.533Z,64.38
2022-10-02T12:49:31.485Z,64.27
2022-10-02T12:52:28.691Z,65.01
2022-10-02T12:55:19.574Z,65.82
2022-10-02T12:58:03.104Z,66.59
2022-10-02T13:00:53.811Z,67.35
2022-10-02T13:03:57.211Z,68.05
2022-10-02T13:07:02.056Z,68.13
2022-10-02T13:09:48.317Z,68.46
2022-10-02T13:12:51.507Z,69.16
2022-10-02T13:15:37.402Z,69.68
2022-10-02T13:18:21.390Z,69.86
2022-10-02T13:21:04.112Z,69.64
2022-10-02T13:23:44.553Z,69.02
2022-10-02T13:26:29.353Z,69.07
2022-10-02T13:29:30.991Z,68.83
2022-10-02T13:32:17.262Z,68.70
2022-10-02T13:35:04.242Z,68.39
2022-10-02T13:37:48.207Z,68.33
2022-10-02T13:40:25.430Z,67.71
2022-10-02T13:43:13.423Z,67.47
2022-10-02T13:45:54.078Z,67.33
2022-10-02T13:48:35.037Z,67.52
2022-10-02T13:51:14.287Z,67.25
2022-10-02T13:54:06.645Z,67.17
2022-10-02T13:56:51.111Z,67.56
2022-10-02T13:59:42.427Z,67.41
2022-10-02T14:02:25.443Z,67.36
2022-10-02T14:05:06.875Z,67.10
2022-10-02T14:07:56.609Z,67.05
2022-10-02T14:10:39.557Z,67.48
2022-10-02T14:13:31.182Z,67.78
2022-10-02T14:16:08.400Z,68.42
2022-10-02T14:18:59.311Z,68.27
2022-10-02T14:21:35.860Z,67.47
2022-10-02T14:24:57.115Z,67.73
2022-10-02T14:28:11.822Z,67.89
2022-10-02T14:31:02.351Z,68.34
2022-10-02T14:33:50.569Z,68.90
2022-10-02T14:36:32.941Z,69.33
2022-10-02T14:39:21.164Z,70.25
2022-10-02T14:42:13.947Z,70.86
2022-10-02T14:45:05.688Z,71.04
2022-10-02T14:47:51.333Z,71.64
2022-10-02T14:50:42.438Z,71.68
2022-10-02T14:53:44.878Z,72.25
2022-10-02T14:56:54.448Z,72.56
2022-10-02T14:59:43.547Z,72.62
2022-10-02T15:02:35.364Z,72.85
2022-10-02T15:05:38.862Z,73.04
2022-10-02T15:08:16.988Z,73.42
2022-10-02T15:10:50.028Z,73.70
2022-10-02T15:13:34.395Z,73.63
2022-10-02T15:16:34.316Z,73.63
2022-10-02T15:19:14.568Z,73.61
2022-10-02T15:21:54.979Z,73.93
2022-10-02T15:24:40.692Z,74.12
2022-10-02T15:27:24.710Z,74.39
2022-10-02T15:30:06.745Z,74.17
2022-10-02T15:33:22.522Z,74.40
2022-10-02T15:36:15.157Z,74.54
2022-10-02T15:38:56.362Z,74.81
2022-10-02T15:41:49.489Z,75.09
2022-10-02T15:44:39.385Z,75.39
2022-10-02T15:47:24.351Z,75.47
2022-10-02T15:50:11.298Z,75.93
2022-10-02T15:52:55.035Z,75.82
2022-10-02T15:55:38.741Z,75.78
2022-10-02T15:58:24.337Z,75.82
2022-10-02T16:01:24.410Z,75.90
2022-10-02T16:04:01.880Z,76.12
2022-10-02T16:06:53.625Z,76.32
2022-10-02T16:09:34.025Z,76.29
2022-10-02T16:12:38.223Z,76.54
2022-10-02T16:15:22.878Z,76.62
2022-10-02T16:18:14.416Z,76.50
2022-10-02T16:21:07.350Z,76.83
2022-10-02T16:24:19.199Z,77.03
2022-10-02T16:27:11.974Z,76.61
2022-10-02T16:29:55.041Z,76.85
2022-10-02T16:32:35.103Z,76.97
2022-10-02T16:35:25.084Z,76.99
2022-10-02T16:38:04.773Z,77.35
2022-10-02T16:40:45.434Z,77.39
2022-10-02T16:43:45.082Z,77.17
2022-10-02T16:46:22.072Z,77.29
2022-10-02T16:48:57.981Z,77.40
2022-10-02T16:51:41.524Z,77.53
2022-10-02T16:54:20.736Z,77.80
2022-10-02T16:56:57.879Z,77.81
2022-10-02T16:59:34.064Z,77.68
2022-10-02T17:02:18.793Z,77.66
2022-10-02T17:05:12.304Z,77.97
2022-10-02T17:07:54.404Z,78.10
2022-10-02T17:10:38.471Z,78.44
2022-10-02T17:13:24.704Z,78.46
2022-10-02T17:16:00.330Z,78.58
2022-10-02T17:18:40.555Z,78.63
2022-10-02T17:21:17.842Z,78.41
2022-10-02T17:24:03.223Z,78.46
2022-10-02T17:26:41.942Z,78.54
2022-10-02T17:29:18.832Z,78.60
2022-10-02T17:31:58.865Z,78.62
2022-10-02T17:34:45.689Z,79.01
2022-10-02T17:37:53.448Z,78.97
2022-10-02T17:40:28.281Z,78.85
2022-10-02T17:43:06.886Z,79.00
2022-10-02T17:45:43.961Z,79.11
2022-10-02T17:48:26.631Z,79.22
2022-10-02T17:51:50.756Z,78.87
2022-10-02T17:54:44.134Z,78.81
2022-10-02T17:57:26.874Z,78.88
2022-10-02T18:03:31.368Z,78.71
2022-10-02T18:06:13.687Z,79.12
2022-10-02T18:09:06.106Z,79.43
2022-10-02T18:11:51.152Z,79.48
2022-10-02T18:14:35.423Z,79.51
2022-10-02T18:17:20.167Z,79.65
2022-10-02T18:20:00.149Z,79.96
2022-10-02T18:22:45.330Z,79.87
2022-10-02T18:25:41.223Z,80.08
2022-10-02T18:28:23.627Z,80.21
2022-10-02T18:31:08.625Z,80.31
2022-10-02T18:34:13.550Z,80.48
2022-10-02T18:36:53.179Z,80.34
2022-10-02T18:39:36.996Z,80.19
2022-10-02T18:42:39.197Z,80.55
2022-10-02T18:45:26.587Z,80.65
2022-10-02T18:48:07.394Z,80.63
2022-10-02T18:50:56.227Z,80.86
2022-10-02T18:53:46.087Z,80.81
2022-10-02T18:56:22.282Z,80.77
2022-10-02T18:59:06.192Z,80.62
2022-10-02T19:01:56.263Z,80.48
2022-10-02T19:04:42.872Z,80.56
2022-10-02T19:07:16.801Z,80.36
2022-10-02T19:09:45.053Z,80.64
2022-10-02T19:12:16.606Z,80.60
2022-10-02T19:14:46.186Z,80.78
2022-10-02T19:17:22.587Z,80.70
2022-10-02T19:19:50.681Z,80.82
2022-10-02T19:22:22.803Z,80.69
2022-10-02T19:24:54.774Z,80.73
2022-10-02T19:27:29.314Z,80.86
2022-10-02T19:29:59.688Z,80.70
2022-10-02T19:32:30.510Z,80.89
2022-10-02T19:35:05.127Z,80.74
2022-10-02T19:37:40.755Z,80.66
2022-10-02T19:40:17.554Z,80.72
2022-10-02T19:42:49.103Z,80.72
2022-10-02T19:45:25.252Z,80.66
2022-10-02T19:47:56.821Z,80.72
2022-10-02T19:50:35.932Z,80.87
2022-10-02T19:53:06.653Z,80.88
2022-10-02T19:55:40.293Z,80.89
2022-10-02T19:58:17.039Z,80.92
2022-10-02T20:00:45.267Z,80.97
2022-10-02T20:03:18.811Z,81.37
2022-10-02T20:05:48.890Z,81.22
2022-10-02T20:08:19.830Z,81.24
2022-10-02T20:10:54.256Z,81.51
2022-10-02T20:13:30.559Z,81.53
2022-10-02T20:16:22.788Z,81.50
2022-10-02T20:18:51.952Z,81.54
2022-10-02T20:21:31.485Z,81.71
2022-10-02T20:24:04.152Z,81.70
2022-10-02T20:26:37.374Z,81.91
2022-10-02T20:29:12.050Z,81.75
2022-10-02T20:31:46.093Z,81.90
2022-10-02T20:34:23.103Z,82.04
2022-10-02T20:36:57.484Z,82.01
2022-10-02T20:39:32.470Z,82.17
2022-10-02T20:42:08.835Z,82.35
2022-10-02T20:44:37.948Z,82.31
2022-10-02T20:47:31.774Z,82.27
2022-10-02T20:50:33.076Z,82.17
2022-10-02T20:53:46.004Z,82.37
2022-10-02T20:56:30.790Z,82.80
2022-10-02T20:59:38.765Z,82.95
2022-10-02T21:02:22.352Z,83.03
2022-10-02T21:05:20.264Z,82.92
2022-10-02T21:08:17.924Z,83.29
2022-10-02T21:11:12.652Z,83.27
2022-10-02T21:14:11.812Z,83.41
2022-10-02T21:17:06.682Z,83.54
2022-10-02T21:20:00.550Z,83.35
2022-10-02T21:22:59.290Z,83.35
2022-10-02T21:25:53.397Z,83.57
2022-10-02T21:28:59.167Z,83.71
2022-10-02T21:31:41.446Z,83.54
2022-10-02T21:34:20.717Z,83.57
2022-10-02T21:36:56.811Z,83.74
2022-10-02T21:40:09.409Z,83.59
2022-10-02T21:43:17.006Z,83.81
2022-10-02T21:46:05.810Z,83.83
2022-10-02T21:49:04.270Z,83.63
2022-10-02T21:52:03.440Z,83.89
2022-10-02T21:55:01.607Z,83.86
2022-10-02T21:58:02.025Z,83.74
2022-10-02T22:00:30.812Z,83.98
2022-10-02T22:03:36.588Z,83.93
2022-10-02T22:06:27.020Z,83.96
2022-10-02T22:09:09.782Z,84.08
2022-10-02T22:11:50.779Z,83.81
2022-10-02T22:14:28.830Z,84.17
2022-10-02T22:17:06.517Z,83.81
2022-10-02T22:20:09.594Z,83.80
2022-10-02T22:22:57.881Z,83.81
2022-10-02T22:25:40.216Z,83.99
2022-10-02T22:28:21.222Z,84.09
2022-10-02T22:31:09.801Z,84.09
2022-10-02T22:33:58.970Z,84.12
2022-10-02T22:36:48.681Z,84.10
2022-10-02T22:39:25.662Z,84.02
2022-10-02T22:41:58.532Z,84.00
2022-10-02T22:44:32.952Z,83.84
2022-10-02T22:47:07.530Z,83.92
2022-10-02T22:49:42.422Z,84.03
2022-10-02T22:52:19.932Z,84.10
2022-10-02T22:54:56.743Z,84.10
2022-10-02T22:57:35.478Z,84.10
2022-10-02T23:00:16.309Z,84.14
2022-10-02T23:02:51.219Z,84.39
2022-10-02T23:05:27.399Z,84.22
2022-10-02T23:07:59.329Z,84.35
2022-10-02T23:10:32.655Z,84.52
2022-10-02T23:13:05.497Z,84.40
2022-10-02T23:15:54.329Z,84.53
2022-10-02T23:18:39.206Z,84.71
2022-10-02T23:21:29.028Z,84.76
2022-10-02T23:24:04.078Z,84.65
2022-10-02T23:26:38.237Z,84.67
2022-10-02T23:29:21.536Z,84.64
2022-10-02T23:31:56.925Z,84.62
2022-10-02T23:34:36.907Z,84.69
2022-10-02T23:37:15.859Z,84.51
2022-10-02T23:39:50.099Z,84.67
2022-10-02T23:42:25.940Z,84.80
2022-10-02T23:44:59.363Z,84.78
2022-10-02T23:47:38.491Z,84.79
2022-10-02T23:50:19.539Z,84.95
2022-10-02T23:53:13.518Z,84.92
2022-10-02T23:55:51.944Z,85.00
2022-10-02T23:58:52.429Z,85.00
